createdAt,value
2018-11-22T12:30:50.963Z,7.09
2018-11-22T12:45:51.384Z,6.98
2018-11-22T13:15:51.440Z,6.88
2018-11-22T13:30:52.609Z,6.77
2018-11-22T13:45:50.576Z,6.27
2018-11-22T14:00:50.280Z,6.27
2018-11-22T14:15:51.333Z,6.30
2018-11-22T14:30:50.816Z,6.10
2018-11-22T14:45:50.778Z,6.09
2018-11-22T15:00:50.206Z,6.03
2018-11-22T15:15:50.638Z,5.78
2018-11-22T15:30:51.095Z,5.70
2018-11-22T15:45:50.977Z,5.83
2018-11-22T16:00:51.927Z,5.75
2018-11-22T16:15:52.756Z,5.66
2018-11-22T16:30:52.804Z,5.81
2018-11-22T16:45:52.309Z,5.96
2018-11-22T17:00:52.107Z,6.12
2018-11-22T17:15:52.576Z,6.20
2018-11-22T17:30:53.724Z,6.29
2018-11-22T17:45:52.797Z,6.28
2018-11-22T18:00:57.441Z,6.18
2018-11-22T18:15:58.921Z,6.11
2018-11-22T18:30:53.726Z,6.11
2018-11-22T18:45:54.835Z,6.13
2018-11-22T19:00:51.444Z,6.16
2018-11-22T19:15:53.600Z,6.16
2018-11-22T19:30:50.837Z,6.14
2018-11-22T19:45:53.636Z,6.19
2018-11-22T20:00:51.322Z,7.18
2018-11-22T20:15:51.155Z,6.89
2018-11-22T20:30:54.330Z,6.67
2018-11-22T20:45:53.755Z,6.55
2018-11-22T21:00:51.506Z,6.47
2018-11-22T21:30:54.119Z,6.32
2018-11-22T21:45:54.797Z,6.23
2018-11-22T22:00:57.673Z,6.19
2018-11-22T22:15:52.016Z,6.18
2018-11-22T22:30:51.476Z,6.14
2018-11-22T22:45:51.663Z,6.15
2018-11-22T23:00:51.981Z,6.15
2018-11-22T23:15:52.839Z,6.18
2018-11-22T23:30:50.542Z,6.17
2018-11-22T23:45:52.538Z,6.16
